Time;durP1;ratioP1;P1;durP2;ratioP2;P2;SDS_P1;SDS_P2;PMS_P1;PMS_P2;Temp;Humidity;BMP_temperature;BMP_pressure;BME280_temperature;BME280_humidity;BME280_pressure;Samples;Min_cycle;Max_cycle;Signal;HPM_P1;HPM_P2
2022/08/24 00:00:09;;;;;;;14.90;10.40;;;;;;;;;;6125991;23;20052;-73
2022/08/24 00:02:37;;;;;;;17.02;10.63;;;;;;;;;;6125530;23;20017;-75
2022/08/24 00:05:06;;;;;;;20.45;11.38;;;;;;;;;;6125652;23;20392;-72
2022/08/24 00:07:40;;;;;;;18.17;10.70;;;;;;;;;;6125476;23;20022;-73
2022/08/24 00:10:09;;;;;;;22.15;11.23;;;;;;;;;;6125684;23;20041;-75
2022/08/24 00:12:36;;;;;;;16.10;10.43;;;;;;;;;;6127831;23;20041;-73
2022/08/24 00:15:07;;;;;;;16.25;10.32;;;;;;;;;;6127486;23;20049;-73
2022/08/24 00:17:34;;;;;;;18.00;10.80;;;;;;;;;;6127428;23;20097;-73
2022/08/24 00:20:02;;;;;;;14.60;10.45;;;;;;;;;;6127426;23;20409;-74
2022/08/24 00:22:29;;;;;;;15.30;10.65;;;;;;;;;;6125850;23;20018;-73
2022/08/24 00:24:57;;;;;;;13.48;9.85;;;;;;;;;;6125937;23;20022;-74
2022/08/24 00:27:25;;;;;;;14.25;10.23;;;;;;;;;;6127466;23;20081;-74
2022/08/24 00:29:52;;;;;;;14.88;10.70;;;;;;;;;;6125888;23;20344;-75
2022/08/24 00:32:20;;;;;;;15.88;11.07;;;;;;;;;;6150207;23;20073;-74
2022/08/24 00:34:48;;;;;;;17.42;10.57;;;;;;;;;;6127353;23;20542;-74
2022/08/24 00:37:27;;;;;;;13.23;9.88;;;;;;;;;;6104071;23;20381;-75
2022/08/24 00:39:55;;;;;;;17.00;10.43;;;;;;;;;;6125702;23;20025;-75
2022/08/24 00:42:24;;;;;;;18.27;11.13;;;;;;;;;;6125710;23;20018;-76
2022/08/24 00:44:51;;;;;;;17.05;10.30;;;;;;;;;;6125672;23;20032;-73
2022/08/24 00:47:22;;;;;;;14.40;9.82;;;;;;;;;;6127350;23;20436;-72
2022/08/24 00:49:50;;;;;;;18.13;10.55;;;;;;;;;;6125664;23;20096;-73
2022/08/24 00:52:24;;;;;;;15.77;10.30;;;;;;;;;;6125731;23;20024;-73
2022/08/24 00:54:54;;;;;;;13.57;8.88;;;;;;;;;;6125727;23;20018;-74
2022/08/24 00:57:27;;;;;;;11.40;8.65;;;;;;;;;;6125690;23;20045;-75
2022/08/24 01:00:09;;;;;;;14.23;9.00;;;;;;;;;;6127057;23;20018;-75
2022/08/24 01:02:40;;;;;;;12.75;8.48;;;;;;;;;;6125617;23;20022;-75
2022/08/24 01:05:11;;;;;;;13.52;7.72;;;;;;;;;;6125558;23;20389;-76
2022/08/24 01:07:39;;;;;;;13.73;8.23;;;;;;;;;;6125483;23;20018;-74
2022/08/24 01:10:09;;;;;;;11.50;7.97;;;;;;;;;;6125455;23;20471;-72
2022/08/24 01:12:38;;;;;;;12.50;7.45;;;;;;;;;;6125396;23;20025;-73
2022/08/24 01:15:07;;;;;;;13.02;7.13;;;;;;;;;;6125315;23;20022;-74
2022/08/24 01:20:25;;;;;;;8.65;7.03;;;;;;;;;;6149911;23;20328;-76
2022/08/24 01:22:52;;;;;;;11.10;7.20;;;;;;;;;;6125055;23;20393;-74
2022/08/24 01:25:21;;;;;;;11.27;6.57;;;;;;;;;;6125374;23;20018;-74
2022/08/24 01:27:51;;;;;;;9.48;6.68;;;;;;;;;;6125270;23;20028;-72
2022/08/24 01:30:19;;;;;;;10.18;5.97;;;;;;;;;;6125288;23;20461;-74
2022/08/24 01:33:08;;;;;;;8.52;6.00;;;;;;;;;;6125258;23;20050;-75
2022/08/24 01:35:37;;;;;;;8.98;5.90;;;;;;;;;;6124830;23;20026;-73
2022/08/24 01:38:06;;;;;;;12.68;6.30;;;;;;;;;;6126796;23;20460;-75
2022/08/24 01:40:36;;;;;;;8.25;6.10;;;;;;;;;;6125188;23;20041;-73
2022/08/24 01:43:05;;;;;;;7.20;5.75;;;;;;;;;;6125160;23;20500;-74
2022/08/24 01:45:34;;;;;;;7.97;5.45;;;;;;;;;;6125108;23;20025;-75
2022/08/24 01:48:03;;;;;;;9.68;5.55;;;;;;;;;;6125034;23;20042;-72
2022/08/24 01:50:31;;;;;;;7.63;5.07;;;;;;;;;;6125058;23;20022;-73
2022/08/24 01:53:01;;;;;;;7.07;5.43;;;;;;;;;;6126601;23;20013;-72
2022/08/24 01:55:32;;;;;;;7.75;5.20;;;;;;;;;;6125068;23;20026;-72
2022/08/24 01:58:00;;;;;;;10.02;5.05;;;;;;;;;;6125079;23;20028;-72
2022/08/24 02:00:29;;;;;;;9.23;5.07;;;;;;;;;;6124962;23;20026;-72
2022/08/24 02:02:57;;;;;;;6.95;5.10;;;;;;;;;;6124841;23;20025;-71
2022/08/24 02:05:25;;;;;;;9.32;5.15;;;;;;;;;;6124865;23;20026;-73
2022/08/24 02:07:53;;;;;;;8.43;4.90;;;;;;;;;;6124888;23;20378;-71
2022/08/24 02:10:21;;;;;;;6.85;5.10;;;;;;;;;;6101020;23;20025;-71
2022/08/24 02:12:56;;;;;;;7.60;5.22;;;;;;;;;;6124868;23;20471;-71
2022/08/24 02:15:26;;;;;;;;;;;;;;;;;;6125265;23;20034;-71
2022/08/24 02:17:54;;;;;;;10.55;5.60;;;;;;;;;;6149555;23;19917;-71
2022/08/24 02:20:22;;;;;;;8.65;5.95;;;;;;;;;;6124416;23;20069;-71
2022/08/24 02:22:50;;;;;;;6.13;5.50;;;;;;;;;;6126237;23;20013;-71
2022/08/24 02:25:18;;;;;;;9.60;5.57;;;;;;;;;;6124863;23;20049;-71
2022/08/24 02:27:46;;;;;;;8.05;5.88;;;;;;;;;;6126068;23;20342;-71
2022/08/24 02:30:14;;;;;;;10.73;6.63;;;;;;;;;;6124558;23;20025;-72
2022/08/24 02:32:42;;;;;;;9.15;6.45;;;;;;;;;;6124705;23;20022;-71
2022/08/24 02:35:10;;;;;;;7.68;5.70;;;;;;;;;;6124399;23;20084;-71
2022/08/24 02:37:37;;;;;;;7.63;6.10;;;;;;;;;;6124651;23;20468;-71
2022/08/24 02:40:13;;;;;;;8.63;6.28;;;;;;;;;;6124545;23;20089;-71
2022/08/24 02:42:41;;;;;;;12.43;5.78;;;;;;;;;;6124530;23;20092;-71
2022/08/24 02:45:09;;;;;;;7.72;5.70;;;;;;;;;;6124217;23;20026;-71
2022/08/24 02:47:37;;;;;;;11.63;6.30;;;;;;;;;;6124554;23;20444;-71
2022/08/24 02:50:08;;;;;;;8.20;5.68;;;;;;;;;;6124365;23;20106;-71
2022/08/24 02:52:36;;;;;;;8.38;5.50;;;;;;;;;;6124531;23;20105;-71
2022/08/24 02:55:06;;;;;;;7.80;5.72;;;;;;;;;;6124426;23;20026;-72
2022/08/24 02:57:33;;;;;;;8.60;5.75;;;;;;;;;;6124432;23;20033;-72
2022/08/24 03:00:08;;;;;;;8.45;5.80;;;;;;;;;;6124229;23;20104;-72
2022/08/24 03:02:42;;;;;;;9.10;5.68;;;;;;;;;;6124469;23;20069;-72
2022/08/24 03:05:10;;;;;;;8.70;5.95;;;;;;;;;;6124253;23;20025;-71
2022/08/24 03:07:38;;;;;;;7.90;6.00;;;;;;;;;;6125905;23;20437;-72
2022/08/24 03:10:06;;;;;;;9.25;6.72;;;;;;;;;;6125869;23;20449;-72
2022/08/24 03:12:34;;;;;;;10.15;6.57;;;;;;;;;;6124317;23;20104;-71
2022/08/24 03:15:02;;;;;;;10.48;7.20;;;;;;;;;;6124358;23;20087;-72
2022/08/24 03:17:32;;;;;;;9.02;6.88;;;;;;;;;;6124284;23;20408;-72
2022/08/24 03:20:00;;;;;;;11.15;7.30;;;;;;;;;;6124146;23;20026;-72
2022/08/24 03:22:28;;;;;;;10.95;7.47;;;;;;;;;;6124193;23;20022;-72
2022/08/24 03:24:56;;;;;;;14.63;8.50;;;;;;;;;;6124218;23;20032;-72
2022/08/24 03:27:24;;;;;;;12.73;8.38;;;;;;;;;;6124192;23;20446;-73
2022/08/24 03:29:51;;;;;;;12.55;7.85;;;;;;;;;;6125859;23;20018;-73
2022/08/24 03:32:20;;;;;;;12.65;8.82;;;;;;;;;;6125812;23;20326;-73
2022/08/24 03:34:49;;;;;;;12.45;9.75;;;;;;;;;;6124183;23;20050;-73
2022/08/24 03:37:17;;;;;;;12.05;9.20;;;;;;;;;;6124185;23;20044;-73
2022/08/24 03:39:46;;;;;;;15.40;11.18;;;;;;;;;;6123946;23;20021;-74
2022/08/24 03:42:14;;;;;;;13.25;10.55;;;;;;;;;;6123895;23;20471;-73
2022/08/24 03:44:42;;;;;;;14.30;10.43;;;;;;;;;;6123892;23;20022;-74
2022/08/24 03:47:10;;;;;;;14.23;10.60;;;;;;;;;;6123868;23;20018;-73
2022/08/24 03:49:38;;;;;;;14.88;10.68;;;;;;;;;;6124131;23;20041;-72
2022/08/24 03:52:06;;;;;;;12.02;8.43;;;;;;;;;;6123906;23;20097;-73
2022/08/24 03:54:34;;;;;;;9.85;7.80;;;;;;;;;;6124106;23;20022;-72
2022/08/24 03:57:01;;;;;;;12.98;8.82;;;;;;;;;;6123712;23;20018;-72
2022/08/24 03:59:30;;;;;;;14.32;8.45;;;;;;;;;;6125753;23;20048;-72
2022/08/24 04:01:58;;;;;;;12.07;8.98;;;;;;;;;;6124016;23;20029;-72
2022/08/24 04:04:28;;;;;;;14.35;9.55;;;;;;;;;;6123926;23;20028;-72
2022/08/24 04:06:56;;;;;;;12.85;9.18;;;;;;;;;;6124122;23;20024;-72
2022/08/24 04:09:25;;;;;;;12.52;10.15;;;;;;;;;;6123964;23;20018;-72
2022/08/24 04:11:55;;;;;;;12.48;10.00;;;;;;;;;;6124256;23;20022;-73
2022/08/24 04:14:25;;;;;;;15.18;9.30;;;;;;;;;;6123863;23;20018;-72
2022/08/24 04:17:14;;;;;;;14.20;8.63;;;;;;;;;;6123667;23;20512;-72
2022/08/24 04:19:56;;;;;;;13.68;9.25;;;;;;;;;;6123803;23;20021;-73
2022/08/24 04:22:34;;;;;;;18.60;14.70;;;;;;;;;;6123594;23;20058;-73
2022/08/24 04:25:04;;;;;;;53.83;42.70;;;;;;;;;;6124997;23;20018;-73
2022/08/24 04:27:38;;;;;;;15.43;11.88;;;;;;;;;;6123409;23;20077;-73
2022/08/24 04:30:07;;;;;;;16.65;14.05;;;;;;;;;;6123823;23;20105;-73
2022/08/24 04:32:51;;;;;;;20.70;15.60;;;;;;;;;;6123925;23;20352;-72
2022/08/24 04:35:19;;;;;;;32.22;26.52;;;;;;;;;;6099839;23;20022;-72
2022/08/24 04:37:46;;;;;;;24.23;19.23;;;;;;;;;;6123509;23;20449;-72
2022/08/24 04:40:14;;;;;;;24.88;18.92;;;;;;;;;;6121429;23;20022;-74
2022/08/24 04:42:47;;;;;;;22.80;16.95;;;;;;;;;;6121596;23;20348;-74
2022/08/24 04:45:15;;;;;;;21.90;15.73;;;;;;;;;;6121509;23;20018;-74
2022/08/24 04:47:44;;;;;;;12.90;10.18;;;;;;;;;;6121394;23;20024;-74
2022/08/24 04:50:12;;;;;;;16.95;11.23;;;;;;;;;;6121571;23;20049;-74
2022/08/24 04:52:41;;;;;;;17.48;13.13;;;;;;;;;;6124232;23;20115;-75
2022/08/24 04:55:09;;;;;;;15.68;10.45;;;;;;;;;;6123717;23;20445;-74
2022/08/24 04:57:37;;;;;;;20.48;16.38;;;;;;;;;;6124922;23;20022;-74
2022/08/24 05:00:06;;;;;;;12.77;10.40;;;;;;;;;;6125857;23;20026;-74
2022/08/24 05:02:34;;;;;;;12.18;8.38;;;;;;;;;;6125678;23;20022;-74
2022/08/24 05:05:09;;;;;;;11.27;8.65;;;;;;;;;;6125650;23;20022;-74
2022/08/24 05:07:37;;;;;;;31.10;26.25;;;;;;;;;;6126988;23;20053;-74
2022/08/24 05:10:05;;;;;;;18.10;14.07;;;;;;;;;;6125299;23;20022;-74
2022/08/24 05:12:35;;;;;;;17.10;13.30;;;;;;;;;;6122388;23;20026;-73
2022/08/24 05:15:07;;;;;;;18.65;14.48;;;;;;;;;;6122964;23;20030;-73
2022/08/24 05:17:40;;;;;;;13.75;9.48;;;;;;;;;;6147422;23;20025;-72
2022/08/24 05:20:10;;;;;;;13.02;9.48;;;;;;;;;;6100237;23;20025;-74
2022/08/24 05:22:38;;;;;;;11.70;9.93;;;;;;;;;;6123842;23;20032;-73
2022/08/24 05:25:07;;;;;;;14.18;10.82;;;;;;;;;;6123837;23;20127;-73
2022/08/24 05:27:35;;;;;;;11.00;8.55;;;;;;;;;;6124438;23;20029;-73
2022/08/24 05:30:04;;;;;;;8.52;6.72;;;;;;;;;;6125350;23;20352;-72
2022/08/24 05:32:31;;;;;;;17.00;10.77;;;;;;;;;;6125275;23;20499;-72
2022/08/24 05:35:00;;;;;;;9.13;6.60;;;;;;;;;;6125156;23;20101;-78
2022/08/24 05:37:28;;;;;;;10.48;6.38;;;;;;;;;;6125230;23;20014;-77
2022/08/24 05:40:12;;;;;;;9.48;5.75;;;;;;;;;;6103935;23;20516;-76
2022/08/24 05:42:42;;;;;;;9.77;8.07;;;;;;;;;;6124940;23;20024;-76
2022/08/24 05:45:11;;;;;;;12.07;6.90;;;;;;;;;;6126229;23;20026;-76
2022/08/24 05:47:39;;;;;;;8.45;6.57;;;;;;;;;;6149512;23;20018;-76
2022/08/24 05:50:36;;;;;;;10.32;7.20;;;;;;;;;;6126278;23;20033;-76
2022/08/24 05:53:03;;;;;;;15.77;13.32;;;;;;;;;;6125069;23;20108;-76
2022/08/24 05:55:32;;;;;;;13.60;8.15;;;;;;;;;;6125009;23;20445;-72
2022/08/24 05:57:59;;;;;;;48.63;43.35;;;;;;;;;;6126112;23;20022;-71
2022/08/24 06:00:27;;;;;;;45.78;37.67;;;;;;;;;;6124742;23;20109;-75
2022/08/24 06:02:55;;;;;;;13.60;9.15;;;;;;;;;;6125047;23;20018;-76
2022/08/24 06:05:23;;;;;;;25.13;20.00;;;;;;;;;;6125087;23;20413;-76
2022/08/24 06:07:50;;;;;;;22.50;15.93;;;;;;;;;;6120665;23;20032;-77
2022/08/24 06:10:18;;;;;;;14.20;8.93;;;;;;;;;;6123466;23;20036;-77
2022/08/24 06:13:04;;;;;;;10.80;7.13;;;;;;;;;;6148293;23;20018;-77
2022/08/24 06:15:32;;;;;;;10.10;8.25;;;;;;;;;;6123691;23;20349;-78
2022/08/24 06:18:00;;;;;;;15.50;8.20;;;;;;;;;;6125906;23;20082;-78
2022/08/24 06:20:28;;;;;;;19.50;13.23;;;;;;;;;;6123768;23;20022;-78
2022/08/24 06:22:56;;;;;;;13.68;9.55;;;;;;;;;;6123618;23;20101;-78
2022/08/24 06:28:16;;;;;;;11.80;8.50;;;;;;;;;;6123903;23;20069;-76
2022/08/24 06:30:44;;;;;;;10.57;7.28;;;;;;;;;;6124272;23;20456;-78
2022/08/24 06:33:17;;;;;;;10.13;7.63;;;;;;;;;;6149093;23;20081;-78
2022/08/24 06:35:48;;;;;;;9.40;7.80;;;;;;;;;;6124268;23;20050;-71
2022/08/24 06:38:15;;;;;;;13.98;9.20;;;;;;;;;;6100292;23;20044;-74
2022/08/24 06:40:45;;;;;;;11.95;8.45;;;;;;;;;;6124196;23;20089;-74
2022/08/24 06:43:13;;;;;;;12.60;9.85;;;;;;;;;;6125768;23;20013;-70
2022/08/24 06:45:47;;;;;;;11.32;8.77;;;;;;;;;;6124245;23;20528;-74
2022/08/24 06:48:17;;;;;;;14.65;9.40;;;;;;;;;;6124290;23;20388;-75
2022/08/24 06:50:46;;;;;;;14.02;10.95;;;;;;;;;;6124009;23;20021;-74
2022/08/24 06:53:14;;;;;;;22.67;18.70;;;;;;;;;;6120260;23;20022;-75
2022/08/24 06:55:45;;;;;;;12.30;8.25;;;;;;;;;;6147422;23;20330;-73
2022/08/24 06:58:13;;;;;;;15.00;12.15;;;;;;;;;;6147565;23;20070;-74
2022/08/24 07:00:41;;;;;;;12.98;9.35;;;;;;;;;;6122884;23;20109;-74
2022/08/24 07:03:08;;;;;;;12.95;8.32;;;;;;;;;;6122566;23;20022;-75
2022/08/24 07:05:48;;;;;;;13.68;8.45;;;;;;;;;;6122740;23;21243;-74
2022/08/24 07:08:24;;;;;;;11.90;8.95;;;;;;;;;;6123155;23;20029;-73
2022/08/24 07:10:51;;;;;;;15.45;9.13;;;;;;;;;;6099491;23;20057;-74
2022/08/24 07:13:19;;;;;;;10.40;8.10;;;;;;;;;;6123861;23;20071;-75
2022/08/24 07:15:48;;;;;;;15.70;10.50;;;;;;;;;;6125851;23;20395;-73
2022/08/24 07:18:16;;;;;;;10.30;7.45;;;;;;;;;;6124070;23;20392;-73
2022/08/24 07:20:48;;;;;;;14.02;8.43;;;;;;;;;;6123405;23;20018;-73
2022/08/24 07:23:23;;;;;;;10.82;7.90;;;;;;;;;;6123594;23;20045;-71
2022/08/24 07:26:14;;;;;;;8.65;6.82;;;;;;;;;;6123845;23;20050;-70
2022/08/24 07:28:52;;;;;;;10.73;7.80;;;;;;;;;;6124089;23;20109;-75
2022/08/24 07:31:21;;;;;;;9.70;7.53;;;;;;;;;;6148634;23;20048;-77
2022/08/24 07:33:59;;;;;;;11.73;8.95;;;;;;;;;;6123129;23;20022;-77
2022/08/24 07:36:27;;;;;;;12.02;7.80;;;;;;;;;;6125241;23;20018;-78
2022/08/24 07:38:56;;;;;;;10.00;6.78;;;;;;;;;;6148480;23;20077;-75
2022/08/24 07:41:24;;;;;;;9.18;7.22;;;;;;;;;;6123104;23;20026;-77
2022/08/24 07:44:14;;;;;;;20.75;14.02;;;;;;;;;;6123922;23;20022;-81
2022/08/24 07:46:42;;;;;;;10.38;8.20;;;;;;;;;;6099374;23;20426;-78
2022/08/24 07:49:12;;;;;;;37.58;31.92;;;;;;;;;;6123955;23;20018;-78
2022/08/24 07:52:00;;;;;;;12.07;7.00;;;;;;;;;;6124179;23;20092;-80
2022/08/24 07:54:28;;;;;;;9.18;7.47;;;;;;;;;;6124081;23;20057;-80
2022/08/24 07:56:59;;;;;;;9.38;7.13;;;;;;;;;;6123884;23;20397;-80
2022/08/24 07:59:26;;;;;;;9.77;6.82;;;;;;;;;;6123671;23;20022;-78
2022/08/24 08:01:55;;;;;;;30.67;25.63;;;;;;;;;;6123681;23;20026;-79
2022/08/24 08:04:24;;;;;;;14.13;11.77;;;;;;;;;;6124071;23;20018;-79
2022/08/24 08:06:53;;;;;;;11.48;10.27;;;;;;;;;;6123837;23;20033;-79
2022/08/24 08:09:26;;;;;;;12.43;9.95;;;;;;;;;;6123959;23;20084;-77
2022/08/24 08:11:54;;;;;;;13.93;8.18;;;;;;;;;;6099912;23;20440;-78
2022/08/24 08:14:22;;;;;;;12.35;9.07;;;;;;;;;;6124017;23;20022;-79
2022/08/24 08:16:50;;;;;;;12.45;9.38;;;;;;;;;;6124068;23;20392;-80
2022/08/24 08:19:17;;;;;;;17.13;11.70;;;;;;;;;;6124053;23;20022;-80
2022/08/24 08:24:42;;;;;;;14.07;10.02;;;;;;;;;;6148489;23;20392;-79
2022/08/24 08:27:13;;;;;;;8.15;5.93;;;;;;;;;;6123676;23;20073;-78
2022/08/24 08:29:42;;;;;;;9.57;7.65;;;;;;;;;;6123741;23;20033;-77
2022/08/24 08:32:15;;;;;;;16.50;8.68;;;;;;;;;;6124261;23;20049;-78
2022/08/24 08:34:46;;;;;;;15.20;11.27;;;;;;;;;;6125378;23;20033;-77
2022/08/24 08:37:14;;;;;;;11.75;7.97;;;;;;;;;;6125062;23;20018;-77
2022/08/24 08:39:42;;;;;;;21.60;18.00;;;;;;;;;;6126837;23;20022;-77
2022/08/24 08:42:16;;;;;;;9.73;6.80;;;;;;;;;;6125164;23;20022;-77
2022/08/24 08:44:52;;;;;;;8.27;6.90;;;;;;;;;;6125366;23;20026;-79
2022/08/24 08:47:37;;;;;;;11.82;8.27;;;;;;;;;;6125240;23;20022;-75
2022/08/24 08:50:12;;;;;;;8.02;6.32;;;;;;;;;;6149937;23;20026;-80
2022/08/24 08:52:55;;;;;;;11.77;7.95;;;;;;;;;;6125405;23;20022;-80
2022/08/24 08:55:26;;;;;;;11.27;7.72;;;;;;;;;;6125527;23;20033;-77
2022/08/24 08:57:59;;;;;;;;;;;;;;;;;;6127733;23;20029;-76
2022/08/24 09:00:39;;;;;;;13.05;8.88;;;;;;;;;;6125365;23;19917;-75
2022/08/24 09:03:17;;;;;;;9.73;6.70;;;;;;;;;;6126743;23;20014;-76
2022/08/24 09:06:21;;;;;;;8.95;4.97;;;;;;;;;;6126843;23;20330;-76
2022/08/24 09:08:56;;;;;;;7.27;5.33;;;;;;;;;;6125382;23;20045;-75
2022/08/24 09:12:05;;;;;;;9.18;6.85;;;;;;;;;;6125329;23;20042;-76
2022/08/24 09:14:44;;;;;;;9.57;5.65;;;;;;;;;;6065878;23;20022;-77
2022/08/24 09:17:15;;;;;;;10.18;8.00;;;;;;;;;;6065970;23;20124;-79
2022/08/24 09:19:56;;;;;;;8.27;5.50;;;;;;;;;;6115222;23;20050;-78
2022/08/24 09:22:24;;;;;;;10.27;7.15;;;;;;;;;;6119606;23;20032;-78
2022/08/24 09:24:51;;;;;;;7.00;5.55;;;;;;;;;;6124383;23;20444;-78
2022/08/24 09:28:03;;;;;;;10.13;6.57;;;;;;;;;;6124834;23;20392;-76
2022/08/24 09:30:35;;;;;;;8.98;6.28;;;;;;;;;;6126397;23;20097;-76
2022/08/24 09:33:07;;;;;;;9.80;5.43;;;;;;;;;;6124991;23;20121;-76
2022/08/24 09:35:39;;;;;;;7.77;5.57;;;;;;;;;;6125705;23;20017;-77
2022/08/24 09:38:15;;;;;;;9.05;6.00;;;;;;;;;;6125872;23;20022;-78
2022/08/24 09:40:45;;;;;;;9.30;6.30;;;;;;;;;;6126369;23;20014;-75
2022/08/24 09:43:13;;;;;;;8.43;5.57;;;;;;;;;;6125695;23;20345;-74
2022/08/24 09:45:54;;;;;;;10.88;5.68;;;;;;;;;;6125720;23;20022;-75
2022/08/24 09:48:25;;;;;;;9.13;5.95;;;;;;;;;;6125588;23;20022;-75
2022/08/24 09:50:55;;;;;;;10.73;6.85;;;;;;;;;;6126000;23;20018;-75
2022/08/24 09:53:41;;;;;;;10.60;5.57;;;;;;;;;;6126037;23;20018;-76
2022/08/24 09:56:17;;;;;;;5.88;5.10;;;;;;;;;;6126491;23;20022;-76
2022/08/24 09:59:03;;;;;;;10.70;5.53;;;;;;;;;;6126318;23;20014;-84
2022/08/24 10:01:35;;;;;;;9.90;5.70;;;;;;;;;;6126016;23;20318;-75
2022/08/24 10:04:23;;;;;;;10.32;5.47;;;;;;;;;;6126427;23;20025;-75
2022/08/24 10:06:51;;;;;;;9.45;5.60;;;;;;;;;;6096050;23;20105;-76
2022/08/24 10:09:39;;;;;;;11.02;5.88;;;;;;;;;;6126238;23;20018;-75
2022/08/24 10:12:06;;;;;;;9.38;4.85;;;;;;;;;;6149292;23;20022;-76
2022/08/24 10:14:53;;;;;;;7.25;5.05;;;;;;;;;;6126440;23;20022;-76
2022/08/24 10:17:20;;;;;;;12.25;5.40;;;;;;;;;;6126303;23;20018;-76
2022/08/24 10:19:48;;;;;;;13.95;5.50;;;;;;;;;;6126321;23;20464;-75
2022/08/24 10:22:18;;;;;;;8.60;5.47;;;;;;;;;;6126024;23;20441;-75
2022/08/24 10:24:52;;;;;;;8.85;5.80;;;;;;;;;;6126056;23;20085;-76
2022/08/24 10:27:19;;;;;;;;;;;;;;;;;;6126510;23;20505;-76
2022/08/24 10:29:47;;;;;;;10.60;7.20;;;;;;;;;;6125989;23;19916;-75
2022/08/24 10:32:21;;;;;;;8.15;5.03;;;;;;;;;;6125901;23;20089;-75
2022/08/24 10:34:54;;;;;;;10.45;5.28;;;;;;;;;;6125994;23;20018;-76
2022/08/24 10:37:41;;;;;;;9.18;7.07;;;;;;;;;;6126175;23;20045;-75
2022/08/24 10:40:13;;;;;;;19.90;8.15;;;;;;;;;;6124740;23;20034;-76
2022/08/24 10:45:59;;;;;;;196.23;42.58;;;;;;;;;;6125898;23;20445;-76
2022/08/24 10:48:30;;;;;;;65.82;20.40;;;;;;;;;;6126344;23;20028;-76
2022/08/24 10:51:18;;;;;;;61.63;16.02;;;;;;;;;;6125920;23;20025;-75
2022/08/24 10:53:50;;;;;;;41.03;11.50;;;;;;;;;;6148995;23;20018;-76
2022/08/24 10:56:19;;;;;;;21.02;6.82;;;;;;;;;;6125955;23;20018;-75
2022/08/24 10:58:49;;;;;;;28.42;8.30;;;;;;;;;;6126147;23;20037;-75
2022/08/24 11:01:29;;;;;;;68.97;21.02;;;;;;;;;;6125978;23;20018;-75
2022/08/24 11:04:10;;;;;;;26.25;9.55;;;;;;;;;;6124315;23;20022;-75
2022/08/24 11:06:40;;;;;;;39.08;12.85;;;;;;;;;;6126076;23;20080;-75
2022/08/24 11:09:15;;;;;;;47.45;15.77;;;;;;;;;;6126234;23;20022;-75
2022/08/24 11:11:48;;;;;;;14.60;5.88;;;;;;;;;;6126227;23;20085;-76
2022/08/24 11:14:16;;;;;;;25.95;10.35;;;;;;;;;;6125966;23;20093;-76
2022/08/24 11:16:45;;;;;;;16.25;6.55;;;;;;;;;;6125744;23;20024;-76
2022/08/24 11:19:27;;;;;;;17.88;5.18;;;;;;;;;;6125623;23;20520;-75
2022/08/24 11:21:56;;;;;;;20.33;5.00;;;;;;;;;;6125295;23;20018;-76
2022/08/24 11:24:23;;;;;;;16.75;5.22;;;;;;;;;;6125539;23;20021;-76
2022/08/24 11:26:54;;;;;;;16.52;4.63;;;;;;;;;;6125595;23;20021;-76
2022/08/24 11:29:26;;;;;;;19.33;7.03;;;;;;;;;;6125575;23;20141;-76
2022/08/24 11:31:53;;;;;;;15.13;5.15;;;;;;;;;;6125544;23;20017;-76
2022/08/24 11:34:38;;;;;;;12.50;4.43;;;;;;;;;;6125619;23;20018;-76
2022/08/24 11:37:05;;;;;;;;;;;;;;;;;;6126281;23;20620;-76
2022/08/24 11:39:34;;;;;;;20.08;8.65;;;;;;;;;;6125736;23;19921;-76
2022/08/24 11:42:21;;;;;;;14.63;6.28;;;;;;;;;;6125627;23;20096;-77
2022/08/24 11:44:55;;;;;;;11.82;5.53;;;;;;;;;;6125824;23;20097;-76
2022/08/24 11:47:23;;;;;;;12.63;5.18;;;;;;;;;;6125752;23;20018;-74
2022/08/24 11:50:13;;;;;;;14.43;5.75;;;;;;;;;;6125667;23;20029;-76
2022/08/24 11:52:50;;;;;;;14.60;7.15;;;;;;;;;;6126089;23;20022;-76
2022/08/24 11:55:22;;;;;;;26.48;14.40;;;;;;;;;;6126025;23;20342;-75
2022/08/24 11:58:11;;;;;;;12.52;5.07;;;;;;;;;;6125611;23;20025;-76
2022/08/24 12:00:43;;;;;;;15.32;5.38;;;;;;;;;;6095834;23;20066;-76
2022/08/24 12:03:23;;;;;;;13.95;5.15;;;;;;;;;;6126020;23;20021;-76
2022/08/24 12:05:54;;;;;;;10.60;4.38;;;;;;;;;;6125682;23;20097;-76
2022/08/24 12:08:30;;;;;;;18.73;6.15;;;;;;;;;;6127454;23;20060;-76
2022/08/24 12:11:03;;;;;;;15.63;5.50;;;;;;;;;;6128018;23;20073;-75
2022/08/24 12:13:51;;;;;;;11.15;5.00;;;;;;;;;;6127715;23;20369;-76
2022/08/24 12:16:19;;;;;;;16.80;6.93;;;;;;;;;;6127384;23;20207;-75
2022/08/24 12:18:46;;;;;;;17.98;5.45;;;;;;;;;;6127882;23;20064;-76
2022/08/24 12:21:17;;;;;;;17.67;5.30;;;;;;;;;;6127416;23;20035;-75
2022/08/24 12:23:47;;;;;;;14.63;6.65;;;;;;;;;;6127344;23;20081;-76
2022/08/24 12:26:27;;;;;;;14.35;4.90;;;;;;;;;;6127746;23;20014;-75
2022/08/24 12:29:05;;;;;;;12.05;4.82;;;;;;;;;;6127408;23;20521;-76
2022/08/24 12:31:33;;;;;;;9.68;4.80;;;;;;;;;;6127263;23;20093;-76
2022/08/24 12:34:02;;;;;;;14.63;5.18;;;;;;;;;;6127495;23;20029;-76
2022/08/24 12:36:38;;;;;;;15.90;5.45;;;;;;;;;;6127332;23;20018;-75
2022/08/24 12:39:14;;;;;;;14.50;5.53;;;;;;;;;;6127273;23;20018;-76
2022/08/24 12:41:48;;;;;;;13.15;5.53;;;;;;;;;;6127185;23;20471;-75
2022/08/24 12:44:16;;;;;;;11.85;5.18;;;;;;;;;;6127097;23;20018;-76
2022/08/24 12:46:51;;;;;;;14.35;5.80;;;;;;;;;;6101300;23;20026;-76
2022/08/24 12:49:23;;;;;;;13.80;5.68;;;;;;;;;;6127271;23;20014;-76
2022/08/24 12:51:57;;;;;;;14.02;5.25;;;;;;;;;;6127323;23;20491;-76
2022/08/24 12:54:27;;;;;;;11.77;4.88;;;;;;;;;;6127398;23;20507;-76
2022/08/24 12:57:12;;;;;;;10.68;4.82;;;;;;;;;;6127323;23;20017;-75
2022/08/24 12:59:48;;;;;;;13.60;5.15;;;;;;;;;;6127199;23;20022;-77
2022/08/24 13:02:18;;;;;;;14.85;5.18;;;;;;;;;;6127233;23;20098;-75
2022/08/24 13:04:48;;;;;;;11.38;5.50;;;;;;;;;;6127087;23;20383;-77
2022/08/24 13:07:19;;;;;;;15.13;5.57;;;;;;;;;;6125483;23;20345;-76
2022/08/24 13:09:52;;;;;;;12.15;5.40;;;;;;;;;;6126736;23;20021;-76
2022/08/24 13:12:32;;;;;;;10.00;5.25;;;;;;;;;;6127082;23;20131;-76
2022/08/24 13:15:18;;;;;;;16.88;10.60;;;;;;;;;;6127000;23;20014;-76
2022/08/24 13:17:46;;;;;;;12.65;4.80;;;;;;;;;;6126765;23;20077;-76
2022/08/24 13:20:17;;;;;;;10.85;5.88;;;;;;;;;;6125700;23;20433;-77
2022/08/24 13:22:47;;;;;;;13.15;5.75;;;;;;;;;;6125612;23;20017;-76
2022/08/24 13:25:24;;;;;;;9.85;5.40;;;;;;;;;;6126329;23;20081;-76
2022/08/24 13:28:03;;;;;;;17.02;6.65;;;;;;;;;;6126387;23;20041;-76
2022/08/24 13:30:34;;;;;;;18.92;7.18;;;;;;;;;;6126653;23;20014;-76
2022/08/24 13:33:04;;;;;;;13.43;5.22;;;;;;;;;;6124941;23;20018;-77
2022/08/24 13:35:40;;;;;;;12.32;5.15;;;;;;;;;;6126795;23;20014;-77
2022/08/24 13:38:26;;;;;;;15.00;5.47;;;;;;;;;;6126314;23;20065;-76
2022/08/24 13:41:10;;;;;;;9.63;4.80;;;;;;;;;;6126167;23;20042;-77
2022/08/24 13:43:58;;;;;;;12.52;5.50;;;;;;;;;;6126289;23;20048;-77
2022/08/24 13:46:41;;;;;;;19.50;5.15;;;;;;;;;;6126088;23;20069;-77
2022/08/24 13:49:15;;;;;;;15.00;4.68;;;;;;;;;;6126025;23;20055;-76
2022/08/24 13:51:56;;;;;;;13.38;5.05;;;;;;;;;;6126431;23;20024;-76
2022/08/24 13:54:33;;;;;;;15.70;4.75;;;;;;;;;;6124699;23;20025;-77
2022/08/24 13:57:18;;;;;;;11.90;5.28;;;;;;;;;;6126404;23;20018;-76
2022/08/24 14:00:05;;;;;;;14.35;5.68;;;;;;;;;;6126196;23;20017;-77
2022/08/24 14:02:54;;;;;;;17.70;4.97;;;;;;;;;;6126232;23;20096;-76
2022/08/24 14:05:31;;;;;;;16.17;5.13;;;;;;;;;;6126213;23;20042;-75
2022/08/24 14:08:05;;;;;;;12.75;4.28;;;;;;;;;;6124597;23;20022;-76
2022/08/24 14:10:35;;;;;;;12.60;5.28;;;;;;;;;;6126109;23;20094;-76
2022/08/24 14:13:23;;;;;;;18.05;5.13;;;;;;;;;;6125990;23;20077;-76
2022/08/24 14:17:50;;;;;;;14.18;5.07;;;;;;;;;;6116584;23;20018;-75
2022/08/24 14:18:50;;;;;;;25.88;10.85;;;;;;;;;;6126181;23;20046;-75
2022/08/24 14:21:20;;;;;;;21.42;8.70;;;;;;;;;;6125967;23;20479;-76
2022/08/24 14:23:51;;;;;;;15.40;5.60;;;;;;;;;;6126676;23;20021;-89
2022/08/24 14:26:37;;;;;;;15.13;4.90;;;;;;;;;;6125511;23;20056;-86
2022/08/24 14:29:14;;;;;;;15.55;5.68;;;;;;;;;;6124765;23;20081;-74
2022/08/24 14:32:02;;;;;;;11.05;5.50;;;;;;;;;;6127264;23;20040;-90
2022/08/24 14:34:43;;;;;;;15.40;5.28;;;;;;;;;;6126371;23;20025;-85
2022/08/24 14:37:19;;;;;;;14.77;5.65;;;;;;;;;;6125634;23;20022;-85
2022/08/24 14:39:57;;;;;;;16.88;5.90;;;;;;;;;;6125837;23;20510;-83
2022/08/24 14:42:44;;;;;;;16.52;5.90;;;;;;;;;;6125920;23;20464;-81
2022/08/24 14:45:21;;;;;;;12.55;4.65;;;;;;;;;;6125555;23;20014;-73
2022/08/24 14:47:55;;;;;;;16.52;6.30;;;;;;;;;;6125307;23;20049;-73
2022/08/24 14:50:26;;;;;;;19.08;5.03;;;;;;;;;;6125340;23;20018;-72
2022/08/24 14:53:05;;;;;;;21.02;8.50;;;;;;;;;;6125078;23;20022;-73
2022/08/24 14:55:42;;;;;;;15.50;5.80;;;;;;;;;;6125369;23;20018;-73
2022/08/24 14:58:29;;;;;;;20.63;5.43;;;;;;;;;;6123548;23;20373;-74
2022/08/24 15:01:03;;;;;;;17.95;6.10;;;;;;;;;;6125022;23;20050;-73
2022/08/24 15:03:47;;;;;;;18.38;7.30;;;;;;;;;;6125647;23;20029;-74
2022/08/24 15:06:24;;;;;;;19.58;5.25;;;;;;;;;;6123941;23;20022;-74
2022/08/24 15:09:05;;;;;;;24.90;5.85;;;;;;;;;;6125079;23;20022;-73
2022/08/24 15:11:36;;;;;;;19.83;5.70;;;;;;;;;;6125351;23;20018;-73
2022/08/24 15:14:05;;;;;;;15.48;5.88;;;;;;;;;;6125316;23;20021;-73